createdAt,value
2022-12-20T00:02:20.588Z,75.36
2022-12-20T00:07:22.585Z,75.51
2022-12-20T00:12:29.816Z,75.64
2022-12-20T00:17:31.712Z,75.46
2022-12-20T00:22:33.610Z,76.07
2022-12-20T00:27:35.450Z,75.97
2022-12-20T00:32:38.543Z,76.55
2022-12-20T00:37:40.517Z,76.88
2022-12-20T00:42:42.278Z,77.00
2022-12-20T00:47:44.059Z,77.27
2022-12-20T00:52:45.814Z,77.04
2022-12-20T00:57:47.667Z,77.03
2022-12-20T01:02:49.566Z,76.93
2022-12-20T01:07:51.525Z,76.84
2022-12-20T01:12:54.158Z,76.92
2022-12-20T01:17:56.073Z,77.23
2022-12-20T01:22:57.843Z,77.38
2022-12-20T01:27:59.607Z,77.47
2022-12-20T01:33:01.479Z,77.81
2022-12-20T01:38:03.452Z,78.02
2022-12-20T01:43:05.251Z,78.10
2022-12-20T01:48:07.632Z,77.90
2022-12-20T01:53:10.320Z,78.07
2022-12-20T01:58:14.501Z,77.63
2022-12-20T02:03:16.966Z,77.02
2022-12-20T02:08:20.338Z,76.40
2022-12-20T02:13:30.353Z,76.28
2022-12-20T02:18:43.228Z,76.13
2022-12-20T02:24:03.661Z,75.95
2022-12-20T02:29:27.697Z,76.24
2022-12-20T02:34:33.900Z,76.54
2022-12-20T02:39:39.267Z,76.48
2022-12-20T02:45:10.246Z,76.64
2022-12-20T02:50:12.990Z,76.76
2022-12-20T02:55:16.284Z,76.75
2022-12-20T03:00:21.589Z,77.01
2022-12-20T03:05:25.709Z,77.15
2022-12-20T03:10:28.275Z,77.51
2022-12-20T03:15:30.227Z,77.68
2022-12-20T03:20:33.372Z,77.75
2022-12-20T03:25:35.181Z,77.79
2022-12-20T03:30:37.916Z,78.00
2022-12-20T03:35:39.976Z,78.15
2022-12-20T03:40:42.971Z,78.08
2022-12-20T03:45:46.875Z,78.19
2022-12-20T03:50:49.235Z,78.22
2022-12-20T03:55:51.081Z,78.51
2022-12-20T04:00:53.332Z,78.54
2022-12-20T04:06:16.191Z,78.37
2022-12-20T04:11:18.478Z,78.38
2022-12-20T04:16:29.852Z,78.37
2022-12-20T04:21:34.435Z,78.44
2022-12-20T04:26:36.624Z,78.49
2022-12-20T04:31:39.494Z,78.47
2022-12-20T04:36:41.625Z,78.47
2022-12-20T04:41:49.096Z,78.58
2022-12-20T04:46:50.973Z,78.65
2022-12-20T04:51:53.404Z,78.69
2022-12-20T04:56:55.958Z,78.73
2022-12-20T05:01:58.472Z,78.69
2022-12-20T05:07:20.566Z,78.87
2022-12-20T05:12:26.371Z,78.99
2022-12-20T05:17:31.756Z,78.92
2022-12-20T05:22:53.887Z,79.05
2022-12-20T05:27:56.098Z,79.18
2022-12-20T05:32:59.433Z,79.23
2022-12-20T05:38:02.830Z,79.21
2022-12-20T05:43:06.966Z,79.20
2022-12-20T05:48:17.320Z,79.27
2022-12-20T05:53:19.689Z,79.28
2022-12-20T05:58:24.606Z,79.27
2022-12-20T06:03:33.107Z,79.35
2022-12-20T06:08:37.232Z,79.44
2022-12-20T06:13:43.170Z,79.54
2022-12-20T06:18:45.286Z,79.55
2022-12-20T06:23:48.486Z,79.53
2022-12-20T06:28:57.150Z,79.70
2022-12-20T06:34:25.304Z,79.67
2022-12-20T06:39:27.591Z,79.70
2022-12-20T06:44:49.042Z,79.71
2022-12-20T06:49:51.005Z,79.58
2022-12-20T06:54:57.071Z,79.53
2022-12-20T06:59:59.639Z,79.49
2022-12-20T07:05:01.618Z,79.52
2022-12-20T07:10:04.041Z,79.20
2022-12-20T07:15:06.147Z,78.72
2022-12-20T07:20:13.255Z,78.63
2022-12-20T07:25:16.174Z,78.44
2022-12-20T07:30:19.355Z,78.27
2022-12-20T07:35:21.151Z,77.96
2022-12-20T07:40:22.995Z,78.46
2022-12-20T07:45:24.897Z,77.85
2022-12-20T07:50:28.688Z,77.15
2022-12-20T07:55:31.347Z,77.07
2022-12-20T08:00:33.697Z,76.60
2022-12-20T08:05:41.070Z,76.26
2022-12-20T08:10:43.674Z,76.06
2022-12-20T08:15:45.472Z,76.73
2022-12-20T08:20:47.958Z,75.84
2022-12-20T08:25:50.219Z,75.93
2022-12-20T08:30:52.294Z,75.39
2022-12-20T08:35:59.302Z,74.64
2022-12-20T08:41:08.004Z,73.57
2022-12-20T08:46:12.192Z,73.21
2022-12-20T08:51:14.165Z,73.36
2022-12-20T08:56:17.870Z,72.95
2022-12-20T09:01:21.908Z,72.40
2022-12-20T09:06:24.068Z,71.70
2022-12-20T09:11:26.921Z,71.54
2022-12-20T09:16:32.747Z,71.79
2022-12-20T09:21:35.302Z,71.00
2022-12-20T09:26:37.260Z,70.47
2022-12-20T09:31:39.107Z,71.21
2022-12-20T09:36:40.869Z,70.77
2022-12-20T09:41:44.360Z,70.74
2022-12-20T09:46:55.167Z,70.17
2022-12-20T09:52:21.705Z,70.54
2022-12-20T09:57:34.488Z,69.71
2022-12-20T10:02:58.353Z,68.93
2022-12-20T10:08:15.706Z,68.53
2022-12-20T10:13:48.604Z,68.35
2022-12-20T10:19:13.738Z,68.65
2022-12-20T10:24:21.508Z,68.33
2022-12-20T10:29:23.884Z,68.83
2022-12-20T10:34:27.838Z,68.28
2022-12-20T10:39:43.879Z,68.17
2022-12-20T10:44:45.691Z,69.38
2022-12-20T10:49:47.398Z,68.08
2022-12-20T10:54:49.191Z,67.64
2022-12-20T11:00:05.595Z,67.40
2022-12-20T11:05:14.543Z,68.54
2022-12-20T11:10:28.996Z,67.81
2022-12-20T11:15:34.898Z,68.12
2022-12-20T11:20:58.667Z,67.56
2022-12-20T11:26:28.440Z,68.31
2022-12-20T11:32:00.713Z,67.45
2022-12-20T11:37:14.375Z,67.15
2022-12-20T11:42:31.509Z,67.52
2022-12-20T11:48:01.177Z,67.98
2022-12-20T11:53:20.586Z,67.90
2022-12-20T11:58:41.403Z,68.24
2022-12-20T12:04:18.286Z,67.80
2022-12-20T12:09:30.609Z,68.19
2022-12-20T12:14:52.572Z,67.50
2022-12-20T12:20:01.367Z,68.92
2022-12-20T12:25:12.186Z,68.57
2022-12-20T12:30:16.373Z,69.50
2022-12-20T12:35:52.614Z,69.30
2022-12-20T12:41:03.779Z,68.62
2022-12-20T12:46:14.657Z,68.57
2022-12-20T12:51:24.081Z,69.19
2022-12-20T12:56:43.144Z,69.35
2022-12-20T13:02:16.213Z,68.70
2022-12-20T13:07:28.823Z,69.55
2022-12-20T13:12:36.505Z,70.27
2022-12-20T13:17:45.332Z,70.61
2022-12-20T13:23:05.562Z,70.80
2022-12-20T13:28:19.682Z,70.68
2022-12-20T13:33:42.050Z,70.96
2022-12-20T13:38:44.907Z,71.32
2022-12-20T13:43:49.678Z,71.62
2022-12-20T13:49:00.941Z,71.65
2022-12-20T13:54:05.622Z,72.13
2022-12-20T13:59:31.106Z,71.92
2022-12-20T14:04:42.885Z,72.04
2022-12-20T14:09:51.989Z,72.04
2022-12-20T14:14:54.467Z,72.27
2022-12-20T14:20:17.309Z,72.57
2022-12-20T14:25:28.070Z,72.73
2022-12-20T14:30:32.635Z,72.69
2022-12-20T14:35:34.484Z,72.73
2022-12-20T14:40:42.610Z,72.83
2022-12-20T14:45:44.472Z,73.03
2022-12-20T14:50:53.761Z,73.45
2022-12-20T14:55:56.277Z,74.21
2022-12-20T15:01:22.224Z,74.03
2022-12-20T15:06:34.859Z,74.22
2022-12-20T15:11:38.139Z,74.71
2022-12-20T15:16:47.781Z,74.60
2022-12-20T15:21:50.589Z,74.50
2022-12-20T15:26:52.463Z,74.78
2022-12-20T15:32:21.272Z,75.29
2022-12-20T15:37:22.993Z,75.15
2022-12-20T15:42:24.898Z,75.21
2022-12-20T15:47:26.628Z,75.27
2022-12-20T15:52:28.415Z,75.41
2022-12-20T15:57:30.939Z,75.61
2022-12-20T16:02:33.492Z,75.42
2022-12-20T16:07:35.639Z,75.55
2022-12-20T16:12:37.426Z,75.74
2022-12-20T16:17:39.263Z,75.80
2022-12-20T16:22:41.148Z,75.90
2022-12-20T16:27:42.861Z,75.84
2022-12-20T16:32:44.577Z,76.01
2022-12-20T16:37:46.281Z,76.08
2022-12-20T16:42:47.981Z,76.33
2022-12-20T16:47:50.095Z,76.39
2022-12-20T16:52:52.309Z,76.67
2022-12-20T16:57:54.397Z,76.78
2022-12-20T17:02:56.881Z,76.74
2022-12-20T17:07:59.127Z,76.38
2022-12-20T17:13:01.998Z,76.52
2022-12-20T17:18:03.919Z,76.89
2022-12-20T17:23:08.775Z,76.47
2022-12-20T17:28:10.525Z,76.93
2022-12-20T17:33:15.410Z,76.60
2022-12-20T17:38:17.124Z,76.77
2022-12-20T17:43:18.809Z,76.65
2022-12-20T17:48:20.593Z,76.63
2022-12-20T17:53:22.269Z,76.50
2022-12-20T17:58:24.026Z,76.64
2022-12-20T18:04:03.762Z,76.13
2022-12-20T18:08:52.321Z,76.12
2022-12-20T18:13:57.608Z,75.96
2022-12-20T18:19:00.912Z,76.45
2022-12-20T18:24:02.636Z,76.53
2022-12-20T18:29:04.418Z,76.63
2022-12-20T18:34:07.078Z,76.76
2022-12-20T18:39:12.618Z,76.86
2022-12-20T18:44:14.369Z,76.63
2022-12-20T18:49:16.123Z,76.52
2022-12-20T18:54:18.133Z,76.45
2022-12-20T18:59:21.212Z,76.51
2022-12-20T19:04:25.148Z,76.69
2022-12-20T19:09:27.184Z,76.64
2022-12-20T19:14:31.036Z,76.39
2022-12-20T19:19:32.865Z,76.34
2022-12-20T19:24:34.603Z,76.64
2022-12-20T19:29:36.324Z,76.40
2022-12-20T19:34:38.166Z,76.38
2022-12-20T19:39:39.821Z,76.40
2022-12-20T19:44:41.598Z,76.49
2022-12-20T19:49:43.321Z,76.26
2022-12-20T19:54:45.107Z,76.39
2022-12-20T19:59:50.880Z,76.40
2022-12-20T20:04:57.272Z,76.21
2022-12-20T20:09:59.102Z,76.09
2022-12-20T20:15:01.098Z,76.26
2022-12-20T20:20:03.070Z,75.67
2022-12-20T20:25:05.407Z,75.71
2022-12-20T20:30:07.888Z,75.85
2022-12-20T20:35:11.066Z,75.77
2022-12-20T20:40:14.278Z,75.58
2022-12-20T20:45:16.991Z,75.34
2022-12-20T20:50:18.751Z,75.72
2022-12-20T20:55:20.449Z,75.68
2022-12-20T21:00:22.412Z,75.32
2022-12-20T21:10:46.197Z,75.48
2022-12-20T21:15:48.139Z,75.10
2022-12-20T21:20:50.253Z,75.25
2022-12-20T21:25:58.575Z,74.99
2022-12-20T21:31:02.453Z,75.13
2022-12-20T21:36:06.928Z,75.11
2022-12-20T21:41:12.387Z,74.92
2022-12-20T21:46:14.271Z,74.98
2022-12-20T21:51:20.715Z,74.69
2022-12-20T21:56:24.226Z,75.09
2022-12-20T22:01:28.012Z,74.58
2022-12-20T22:06:31.586Z,74.69
2022-12-20T22:11:34.680Z,74.78
2022-12-20T22:16:37.789Z,75.06
2022-12-20T22:21:39.731Z,75.31
2022-12-20T22:26:41.712Z,75.08
2022-12-20T22:31:43.538Z,74.82
2022-12-20T22:36:45.346Z,74.68
2022-12-20T22:41:47.045Z,74.71
2022-12-20T22:46:48.833Z,74.63
2022-12-20T22:52:05.927Z,74.64
2022-12-20T22:57:10.398Z,74.95
2022-12-20T23:02:12.332Z,75.16
2022-12-20T23:07:14.434Z,75.36
2022-12-20T23:12:35.135Z,75.37
2022-12-20T23:17:36.840Z,75.58
2022-12-20T23:22:38.578Z,75.69
2022-12-20T23:27:43.015Z,75.82
2022-12-20T23:32:44.957Z,76.01
2022-12-20T23:37:47.226Z,75.96
2022-12-20T23:42:48.973Z,76.16
2022-12-20T23:47:50.739Z,76.06
2022-12-20T23:52:52.462Z,76.04
2022-12-20T23:57:54.231Z,76.02
